createdAt,value
2017-04-05T00:10:18.616Z,37.7
2017-04-05T00:21:19.095Z,38.2
2017-04-05T00:32:18.844Z,38.4
2017-04-05T00:43:18.374Z,37.8
2017-04-05T00:54:18.531Z,38.7
2017-04-05T01:05:18.244Z,38.9
2017-04-05T01:16:18.849Z,38.9
2017-04-05T01:27:18.981Z,39.3
2017-04-05T01:38:19.356Z,37.3
2017-04-05T01:49:18.982Z,35.9
2017-04-05T02:00:19.794Z,35
2017-04-05T02:11:18.649Z,34.1
2017-04-05T02:22:17.948Z,34.2
2017-04-05T02:33:18.245Z,33.1
2017-04-05T02:44:19.178Z,32.6
2017-04-05T02:55:18.316Z,31.9
2017-04-05T03:06:18.192Z,30.6
2017-04-05T03:17:20.551Z,30.5
2017-04-05T03:28:18.819Z,33.5
2017-04-05T03:39:18.793Z,34.3
2017-04-05T03:50:19.381Z,34.2
2017-04-05T04:01:18.884Z,34.2
2017-04-05T04:12:18.450Z,35.7
2017-04-05T04:23:18.374Z,35.8
2017-04-05T04:34:18.627Z,36.9
2017-04-05T04:45:18.810Z,36.8
2017-04-05T04:56:18.757Z,37.5
2017-04-05T05:07:18.640Z,38.2
2017-04-05T05:18:18.941Z,39.1
2017-04-05T05:29:18.113Z,37.3
2017-04-05T05:40:18.519Z,36.2
2017-04-05T05:51:18.624Z,35.8
2017-04-05T06:02:18.973Z,35.4
2017-04-05T06:13:18.080Z,34.6
2017-04-05T06:24:18.088Z,34.8
2017-04-05T06:35:17.941Z,33.8
2017-04-05T06:46:18.581Z,34.5
2017-04-05T06:57:18.477Z,34
2017-04-05T07:08:18.384Z,33.6
2017-04-05T07:19:18.639Z,37.2
2017-04-05T07:30:18.438Z,37.3
2017-04-05T07:41:18.443Z,37.6
2017-04-05T07:52:18.133Z,38.7
2017-04-05T08:03:18.901Z,39.2
2017-04-05T08:14:18.597Z,39.8
2017-04-05T08:25:18.835Z,40.2
2017-04-05T08:36:18.388Z,40.7
2017-04-05T08:47:18.751Z,41.2
2017-04-05T08:58:18.572Z,41.6
2017-04-05T09:09:18.728Z,41.7
2017-04-05T09:20:18.486Z,42.1
2017-04-05T09:31:18.032Z,43
2017-04-05T09:42:18.591Z,43.4
2017-04-05T09:53:18.040Z,41.8
2017-04-05T10:04:18.552Z,40.9
2017-04-05T10:15:17.962Z,40.4
2017-04-05T10:26:18.712Z,39.7
2017-04-05T10:37:18.558Z,39.3
2017-04-05T10:48:18.679Z,38.1
2017-04-05T10:59:17.855Z,38.1
2017-04-05T11:10:18.423Z,37.2
2017-04-05T11:21:18.498Z,37.6
2017-04-05T11:32:18.662Z,36.8
2017-04-05T11:43:18.523Z,39.2
2017-04-05T11:54:17.684Z,40.1
2017-04-05T12:05:18.396Z,39.4
2017-04-05T12:16:18.387Z,40.9
2017-04-05T12:27:19.258Z,40.8
2017-04-05T12:38:18.358Z,41.6
2017-04-05T12:49:18.512Z,41.6
2017-04-05T13:00:18.411Z,41.6
2017-04-05T13:11:19.058Z,42.1
2017-04-05T13:22:18.809Z,43.2
2017-04-05T13:33:18.373Z,42.8
2017-04-05T13:44:18.477Z,42.6
2017-04-05T13:55:17.777Z,43.7
2017-04-05T14:06:18.621Z,41.4
2017-04-05T14:17:18.447Z,41.2
2017-04-05T14:28:19.742Z,39.8
2017-04-05T14:39:18.400Z,39.9
2017-04-05T14:50:19.047Z,38.7
2017-04-05T15:01:18.294Z,38.6
2017-04-05T15:12:17.744Z,37.7
2017-04-05T15:23:17.968Z,37.2
2017-04-05T15:34:17.995Z,36.5
2017-04-05T15:45:17.689Z,36.7
2017-04-05T15:56:17.610Z,35.7
2017-04-05T16:07:18.593Z,38.4
2017-04-05T16:18:18.044Z,39.7
2017-04-05T16:29:18.308Z,39.6
2017-04-05T16:40:18.461Z,39.5
2017-04-05T16:51:18.619Z,40.6
2017-04-05T17:02:18.237Z,40.8
2017-04-05T17:13:18.145Z,41.2
2017-04-05T17:24:18.263Z,41.4
2017-04-05T17:35:18.237Z,41.5
2017-04-05T17:46:18.362Z,42.3
2017-04-05T17:57:18.062Z,41.9
2017-04-05T18:08:17.464Z,42.4
2017-04-05T18:19:18.189Z,38.8
2017-04-05T18:30:18.879Z,38.4
2017-04-05T18:41:18.446Z,38.5
2017-04-05T18:52:17.874Z,37.8
2017-04-05T19:03:17.627Z,38.8
2017-04-05T19:14:17.781Z,36.8
2017-04-05T19:25:18.366Z,35.7
2017-04-05T19:36:17.783Z,34.5
2017-04-05T19:47:18.911Z,34.7
2017-04-05T19:58:18.291Z,37.4
2017-04-05T20:09:18.789Z,36.7
2017-04-05T20:20:18.697Z,36.6
2017-04-05T20:31:18.519Z,37.2
2017-04-05T20:42:18.745Z,39.4
2017-04-05T20:53:18.421Z,37.2
2017-04-05T21:04:18.299Z,44.2
2017-04-05T21:15:18.084Z,38
2017-04-05T21:26:18.257Z,38.1
2017-04-05T21:37:18.403Z,38.2
2017-04-05T21:48:18.513Z,38.5
2017-04-05T21:59:18.134Z,39
2017-04-05T22:10:18.973Z,39
2017-04-05T22:21:18.215Z,38.9
2017-04-05T22:32:18.415Z,38.9
2017-04-05T22:43:18.735Z,38.6
2017-04-05T22:54:18.550Z,38.9
2017-04-05T23:05:18.659Z,39.4
2017-04-05T23:16:18.134Z,38.7
2017-04-05T23:27:18.652Z,38.9
2017-04-05T23:38:17.947Z,36.1
2017-04-05T23:49:18.678Z,35.8
